createdAt,value
2023-05-14T00:01:33.972Z,98089.53
2023-05-14T00:04:04.321Z,98082.72
2023-05-14T00:06:34.816Z,98078.88
2023-05-14T00:09:07.690Z,98076.88
2023-05-14T00:11:37.826Z,98067.50
2023-05-14T00:14:08.175Z,98069.03
2023-05-14T00:16:38.321Z,98073.06
2023-05-14T00:19:08.607Z,98065.47
2023-05-14T00:21:38.772Z,98068.31
2023-05-14T00:24:11.761Z,98068.03
2023-05-14T00:26:41.960Z,98068.31
2023-05-14T00:29:12.222Z,98075.16
2023-05-14T00:31:42.477Z,98064.00
2023-05-14T00:34:12.889Z,98069.81
2023-05-14T00:36:43.046Z,98067.81
2023-05-14T00:39:16.364Z,98064.53
2023-05-14T00:41:46.564Z,98067.34
2023-05-14T00:44:16.694Z,98068.88
2023-05-14T00:46:47.077Z,98059.53
2023-05-14T00:49:17.401Z,98064.06
2023-05-14T00:51:48.697Z,98060.22
2023-05-14T00:54:23.042Z,98059.25
2023-05-14T00:56:53.918Z,98047.56
2023-05-14T00:59:24.160Z,98041.44
2023-05-14T01:01:54.576Z,98043.97
2023-05-14T01:04:24.817Z,98047.66
2023-05-14T01:07:04.083Z,98042.09
2023-05-14T01:09:40.807Z,98045.34
2023-05-14T01:12:16.684Z,98044.88
2023-05-14T01:14:52.184Z,98044.56
2023-05-14T01:17:23.979Z,98035.75
2023-05-14T01:19:54.794Z,98037.56
2023-05-14T01:22:27.609Z,98036.88
2023-05-14T01:24:57.788Z,98041.72
2023-05-14T01:27:30.998Z,98037.13
2023-05-14T01:30:11.116Z,98040.59
2023-05-14T01:32:42.937Z,98045.00
2023-05-14T01:35:13.533Z,98040.97
2023-05-14T01:37:47.727Z,98042.44
2023-05-14T01:40:18.088Z,98043.97
2023-05-14T01:42:49.013Z,98042.84
2023-05-14T01:45:19.424Z,98034.03
2023-05-14T01:47:49.703Z,98033.03
2023-05-14T01:50:20.239Z,98035.88
2023-05-14T01:52:53.715Z,98032.13
2023-05-14T01:55:24.824Z,98040.03
2023-05-14T01:57:55.435Z,98033.63
2023-05-14T02:00:26.953Z,98033.91
2023-05-14T02:02:57.353Z,98043.31
2023-05-14T02:05:27.979Z,98039.28
2023-05-14T02:08:00.714Z,98035.22
2023-05-14T02:10:31.061Z,98034.75
2023-05-14T02:13:01.450Z,98035.72
2023-05-14T02:15:31.648Z,98026.56
2023-05-14T02:18:01.862Z,98024.53
2023-05-14T02:20:32.036Z,98030.16
2023-05-14T02:23:04.823Z,98027.16
2023-05-14T02:25:35.062Z,98031.94
2023-05-14T02:28:05.553Z,98016.78
2023-05-14T02:30:35.682Z,98023.31
2023-05-14T02:33:05.916Z,98022.00
2023-05-14T02:35:37.664Z,98024.09
2023-05-14T02:38:11.487Z,98017.44
2023-05-14T02:40:41.716Z,98025.28
2023-05-14T02:43:11.805Z,98029.34
2023-05-14T02:45:42.013Z,98020.69
2023-05-14T02:48:12.509Z,98025.72
2023-05-14T02:50:42.754Z,98018.63
2023-05-14T02:53:15.555Z,98021.88
2023-05-14T02:55:45.694Z,98009.97
2023-05-14T02:58:16.278Z,98005.41
2023-05-14T03:00:46.630Z,98012.34
2023-05-14T03:03:17.331Z,98010.06
2023-05-14T03:05:47.854Z,98009.69
2023-05-14T03:08:20.793Z,98007.91
2023-05-14T03:10:53.679Z,97999.22
2023-05-14T03:13:23.854Z,98004.00
2023-05-14T03:15:55.192Z,98004.78
2023-05-14T03:18:25.863Z,98000.38
2023-05-14T03:20:56.169Z,98001.63
2023-05-14T03:23:29.132Z,97997.31
2023-05-14T03:25:59.597Z,97993.50
2023-05-14T03:28:30.036Z,97992.44
2023-05-14T03:31:00.237Z,97987.44
2023-05-14T03:33:30.501Z,97992.03
2023-05-14T03:36:00.686Z,97989.25
2023-05-14T03:38:33.516Z,97997.31
2023-05-14T03:41:03.751Z,97992.44
2023-05-14T03:43:33.898Z,97998.72
2023-05-14T03:46:04.034Z,97993.56
2023-05-14T03:48:34.309Z,97999.34
2023-05-14T03:51:07.765Z,97994.47
2023-05-14T03:53:42.135Z,97990.22
2023-05-14T03:56:12.311Z,98002.59
2023-05-14T03:58:42.985Z,97991.00
2023-05-14T04:01:13.260Z,97999.81
2023-05-14T04:03:43.608Z,97989.75
2023-05-14T04:06:14.453Z,97986.47
2023-05-14T04:08:47.262Z,97989.31
2023-05-14T04:11:17.482Z,97986.34
2023-05-14T04:13:47.641Z,97979.72
2023-05-14T04:16:18.328Z,97978.59
2023-05-14T04:18:48.496Z,97979.38
2023-05-14T04:21:19.264Z,97984.59
2023-05-14T04:23:52.029Z,97984.09
2023-05-14T04:26:22.317Z,97977.66
2023-05-14T04:28:53.004Z,97981.38
2023-05-14T04:31:23.414Z,97979.84
2023-05-14T04:33:53.661Z,97978.41
2023-05-14T04:36:23.832Z,97973.69
2023-05-14T04:38:56.824Z,97970.72
2023-05-14T04:41:27.005Z,97974.00
2023-05-14T04:43:59.441Z,97978.09
2023-05-14T04:46:29.787Z,97981.38
2023-05-14T04:49:00.108Z,97978.94
2023-05-14T04:51:30.250Z,97980.06
2023-05-14T04:54:03.089Z,97972.06
2023-05-14T04:56:33.296Z,97973.59
2023-05-14T04:59:03.459Z,97971.34
2023-05-14T05:01:33.719Z,97974.59
2023-05-14T05:04:04.048Z,97979.47
2023-05-14T05:06:34.504Z,97971.88
2023-05-14T05:09:08.931Z,97974.50
2023-05-14T05:11:39.120Z,97976.78
2023-05-14T05:14:09.200Z,97969.25
2023-05-14T05:16:39.379Z,97965.50
2023-05-14T05:19:09.657Z,97970.34
2023-05-14T05:21:40.957Z,97969.38
2023-05-14T05:24:13.730Z,97966.13
2023-05-14T05:26:43.853Z,97966.25
2023-05-14T05:29:14.200Z,97952.91
2023-05-14T05:31:44.980Z,97958.03
2023-05-14T05:34:15.244Z,97958.84
2023-05-14T05:36:45.363Z,97955.06
2023-05-14T05:39:18.118Z,97958.91
2023-05-14T05:41:48.266Z,97958.50
2023-05-14T05:44:18.542Z,97952.09
2023-05-14T05:46:49.003Z,97955.47
2023-05-14T05:49:19.189Z,97961.34
2023-05-14T05:51:49.287Z,97959.53
2023-05-14T05:54:22.029Z,97960.38
2023-05-14T05:56:52.339Z,97960.38
2023-05-14T05:59:22.599Z,97962.72
2023-05-14T06:01:52.792Z,97961.25
2023-05-14T06:04:23.251Z,97960.00
2023-05-14T06:06:53.390Z,97964.34
2023-05-14T06:09:26.319Z,97956.72
2023-05-14T06:11:56.488Z,97954.75
2023-05-14T06:14:26.647Z,97955.81
2023-05-14T06:16:56.812Z,97960.72
2023-05-14T06:19:27.034Z,97948.78
2023-05-14T06:21:57.193Z,97956.94
2023-05-14T06:24:30.004Z,97949.06
2023-05-14T06:27:00.104Z,97945.50
2023-05-14T06:29:30.317Z,97954.13
2023-05-14T06:32:04.827Z,97949.53
2023-05-14T06:34:35.378Z,97953.59
2023-05-14T06:37:05.800Z,97949.25
2023-05-14T06:39:38.866Z,97945.66
2023-05-14T06:42:09.658Z,97947.41
2023-05-14T06:44:39.956Z,97949.13
2023-05-14T06:47:10.884Z,97947.28
2023-05-14T06:49:42.081Z,97942.69
2023-05-14T06:52:12.441Z,97943.41
2023-05-14T06:54:45.269Z,97946.66
2023-05-14T06:57:15.421Z,97939.75
2023-05-14T06:59:45.716Z,97938.44
2023-05-14T07:02:15.869Z,97945.22
2023-05-14T07:04:46.340Z,97937.50
2023-05-14T07:07:20.770Z,97929.94
2023-05-14T07:09:53.522Z,97933.00
2023-05-14T07:12:23.633Z,97929.09
2023-05-14T07:14:53.809Z,97919.25
2023-05-14T07:17:24.017Z,97920.47
2023-05-14T07:19:55.737Z,97919.38
2023-05-14T07:22:25.942Z,97910.56
2023-05-14T07:24:58.727Z,97908.25
2023-05-14T07:27:28.965Z,97907.09
2023-05-14T07:29:59.139Z,97905.75
2023-05-14T07:32:29.658Z,97911.84
2023-05-14T07:34:59.974Z,97904.50
2023-05-14T07:37:30.173Z,97908.22
2023-05-14T07:40:03.144Z,97899.31
2023-05-14T07:42:36.416Z,97909.81
2023-05-14T07:45:08.840Z,97897.50
2023-05-14T07:47:39.255Z,97897.09
2023-05-14T07:50:11.084Z,97889.38
2023-05-14T07:52:41.261Z,97904.97
2023-05-14T07:55:17.178Z,97898.78
2023-05-14T07:57:47.436Z,97896.16
2023-05-14T08:00:20.820Z,97905.19
2023-05-14T08:02:54.085Z,97897.06
2023-05-14T08:05:24.692Z,97897.50
2023-05-14T08:07:54.922Z,97900.97
2023-05-14T08:10:28.343Z,97896.28
2023-05-14T08:12:59.021Z,97899.25
2023-05-14T08:15:29.235Z,97898.91
2023-05-14T08:18:03.767Z,97909.00
2023-05-14T08:20:34.171Z,97901.97
2023-05-14T08:23:04.525Z,97893.28
2023-05-14T08:25:37.417Z,97900.34
2023-05-14T08:28:08.116Z,97882.03
2023-05-14T08:30:38.557Z,97883.00
2023-05-14T08:33:08.775Z,97884.34
2023-05-14T08:36:12.261Z,97883.97
2023-05-14T08:38:42.699Z,97873.75
2023-05-14T08:41:16.188Z,97859.47
2023-05-14T08:43:50.564Z,97869.44
2023-05-14T08:46:22.510Z,97875.91
2023-05-14T08:48:58.683Z,97868.78
2023-05-14T08:51:30.024Z,97870.56
2023-05-14T08:54:05.793Z,97866.09
2023-05-14T08:56:39.027Z,97863.00
2023-05-14T08:59:09.237Z,97861.66
2023-05-14T09:01:41.181Z,97855.06
2023-05-14T09:04:11.535Z,97863.13
2023-05-14T09:06:42.505Z,97849.25
2023-05-14T09:09:13.333Z,97849.38
2023-05-14T09:11:50.173Z,97854.22
2023-05-14T09:14:20.495Z,97852.06
2023-05-14T09:16:52.153Z,97842.91
2023-05-14T09:19:22.534Z,97846.53
2023-05-14T09:21:53.202Z,97843.75
2023-05-14T09:24:24.487Z,97842.78
2023-05-14T09:26:58.960Z,97843.25
2023-05-14T09:29:30.041Z,97847.88
2023-05-14T09:32:02.514Z,97843.84
2023-05-14T09:34:33.509Z,97837.63
2023-05-14T09:37:06.324Z,97834.03
2023-05-14T09:39:37.566Z,97844.63
2023-05-14T09:42:10.934Z,97831.53
2023-05-14T09:44:41.336Z,97819.13
2023-05-14T09:47:11.665Z,97824.22
2023-05-14T09:49:43.246Z,97816.25
2023-05-14T09:52:15.133Z,97809.38
2023-05-14T09:54:45.348Z,97810.72
2023-05-14T09:57:18.180Z,97808.47
2023-05-14T09:59:48.320Z,97803.47
2023-05-14T10:02:25.938Z,97802.44
2023-05-14T10:04:59.056Z,97807.38
2023-05-14T10:07:34.709Z,97794.00
2023-05-14T10:10:06.799Z,97793.38
2023-05-14T10:12:42.428Z,97785.31
2023-05-14T10:15:18.422Z,97773.50
2023-05-14T10:17:52.464Z,97783.63
2023-05-14T10:20:24.096Z,97781.44
2023-05-14T10:22:54.540Z,97792.09
2023-05-14T10:25:25.838Z,97776.84
2023-05-14T10:27:59.259Z,97773.22
2023-05-14T10:30:29.401Z,97774.28
2023-05-14T10:33:12.554Z,97773.53
2023-05-14T10:35:59.224Z,97770.00
2023-05-14T10:38:30.947Z,97779.34
2023-05-14T10:41:03.897Z,97782.44
2023-05-14T10:43:41.878Z,97769.88
2023-05-14T10:46:14.052Z,97765.66
2023-05-14T10:48:45.478Z,97758.34
2023-05-14T10:51:17.664Z,97751.81
2023-05-14T10:53:48.163Z,97746.47
2023-05-14T10:56:18.390Z,97748.34
2023-05-14T10:58:53.535Z,97741.56
2023-05-14T11:01:27.293Z,97744.22
2023-05-14T11:03:57.902Z,97740.66
2023-05-14T11:06:29.680Z,97737.25
2023-05-14T11:09:00.081Z,97733.75
2023-05-14T11:11:30.471Z,97734.72
2023-05-14T11:14:03.527Z,97721.63
2023-05-14T11:16:34.318Z,97727.78
2023-05-14T11:19:05.784Z,97721.41
2023-05-14T11:21:36.078Z,97719.78
2023-05-14T11:24:07.625Z,97715.31
2023-05-14T11:26:37.877Z,97709.09
2023-05-14T11:29:10.978Z,97712.66
2023-05-14T11:31:41.591Z,97698.28
2023-05-14T11:34:11.743Z,97703.63
2023-05-14T11:36:42.532Z,97698.16
2023-05-14T11:39:12.758Z,97690.66
2023-05-14T11:41:47.366Z,97693.59
2023-05-14T11:44:20.632Z,97693.78
2023-05-14T11:46:58.013Z,97694.09
2023-05-14T11:49:29.247Z,97698.56
2023-05-14T11:52:02.421Z,97698.31
2023-05-14T11:54:34.065Z,97696.69
2023-05-14T11:57:05.849Z,97682.56
2023-05-14T11:59:38.673Z,97684.66
2023-05-14T12:02:12.258Z,97676.97
2023-05-14T12:04:43.031Z,97675.56
2023-05-14T12:07:15.278Z,97667.25
2023-05-14T12:09:49.585Z,97673.81
2023-05-14T12:12:22.128Z,97674.75
2023-05-14T12:14:55.204Z,97674.91
2023-05-14T12:17:26.217Z,97665.28
2023-05-14T12:19:57.262Z,97671.94
2023-05-14T12:22:27.478Z,97661.13
2023-05-14T12:24:58.332Z,97661.97
2023-05-14T12:27:29.789Z,97650.75
2023-05-14T12:32:39.613Z,97654.28
2023-05-14T12:35:10.249Z,97656.13
2023-05-14T12:37:40.508Z,97664.00
2023-05-14T12:40:11.943Z,97654.66
2023-05-14T12:42:42.174Z,97655.91
2023-05-14T12:45:15.280Z,97649.13
2023-05-14T12:47:45.610Z,97648.31
2023-05-14T12:50:15.764Z,97640.03
2023-05-14T12:52:46.837Z,97639.03
2023-05-14T12:55:17.159Z,97641.38
2023-05-14T12:57:47.419Z,97636.88
2023-05-14T13:00:21.208Z,97642.00
2023-05-14T13:02:51.450Z,97634.13
2023-05-14T13:05:21.731Z,97633.84
2023-05-14T13:07:51.963Z,97634.47
2023-05-14T13:10:22.309Z,97639.16
2023-05-14T13:12:52.930Z,97635.84
2023-05-14T13:15:25.961Z,97641.47
2023-05-14T13:17:56.426Z,97637.47
2023-05-14T13:20:27.759Z,97640.63
2023-05-14T13:22:57.978Z,97643.00
2023-05-14T13:25:28.178Z,97641.19
2023-05-14T13:27:58.604Z,97642.97
2023-05-14T13:30:32.286Z,97637.31
2023-05-14T13:33:02.802Z,97628.16
2023-05-14T13:35:33.227Z,97634.44
2023-05-14T13:38:03.362Z,97645.50
2023-05-14T13:40:33.562Z,97637.19
2023-05-14T13:43:03.704Z,97646.06
2023-05-14T13:45:36.434Z,97639.63
2023-05-14T13:48:07.079Z,97635.06
2023-05-14T13:50:37.284Z,97631.63
2023-05-14T13:53:07.443Z,97634.03
2023-05-14T13:55:37.650Z,97623.97
2023-05-14T13:58:07.835Z,97624.13
2023-05-14T14:00:40.559Z,97615.59
2023-05-14T14:03:11.323Z,97617.31
2023-05-14T14:05:41.619Z,97616.00
2023-05-14T14:08:22.614Z,97614.91
2023-05-14T14:10:55.596Z,97619.88
2023-05-14T14:13:26.238Z,97612.03
2023-05-14T14:15:59.047Z,97612.13
2023-05-14T14:18:29.521Z,97615.81
2023-05-14T14:20:59.660Z,97611.72
2023-05-14T14:23:29.858Z,97609.03
2023-05-14T14:26:00.708Z,97603.09
2023-05-14T14:28:30.871Z,97599.47
2023-05-14T14:31:03.675Z,97607.84
2023-05-14T14:33:33.939Z,97603.63
2023-05-14T14:36:04.110Z,97601.84
2023-05-14T14:38:34.391Z,97603.81
2023-05-14T14:41:07.264Z,97597.44
2023-05-14T14:43:37.563Z,97589.44
2023-05-14T14:46:11.360Z,97596.84
2023-05-14T14:48:41.991Z,97595.22
2023-05-14T14:51:12.317Z,97599.25
2023-05-14T14:53:42.890Z,97601.41
2023-05-14T14:56:13.087Z,97601.63
2023-05-14T14:58:43.249Z,97607.78
2023-05-14T15:01:17.132Z,97607.47
2023-05-14T15:03:48.570Z,97601.16
2023-05-14T15:06:19.027Z,97613.13
2023-05-14T15:08:49.239Z,97606.53
2023-05-14T15:11:19.434Z,97602.63
2023-05-14T15:13:49.695Z,97608.66
2023-05-14T15:16:22.755Z,97609.81
2023-05-14T15:18:53.082Z,97609.25
2023-05-14T15:21:23.358Z,97610.19
2023-05-14T15:23:53.699Z,97604.19
2023-05-14T15:26:23.930Z,97609.94
2023-05-14T15:28:54.189Z,97609.00
2023-05-14T15:31:27.290Z,97604.97
2023-05-14T15:33:57.597Z,97599.13
2023-05-14T15:36:28.740Z,97598.69
2023-05-14T15:38:58.923Z,97606.94
2023-05-14T15:41:29.776Z,97602.25
2023-05-14T15:44:00.107Z,97608.72
2023-05-14T15:46:33.338Z,97604.91
2023-05-14T15:49:03.462Z,97604.22
2023-05-14T15:51:33.630Z,97611.94
2023-05-14T15:54:03.844Z,97606.59
2023-05-14T15:56:34.182Z,97609.91
2023-05-14T15:59:04.422Z,97604.91
2023-05-14T16:01:37.341Z,97599.59
2023-05-14T16:04:07.605Z,97599.59
2023-05-14T16:06:41.653Z,97601.91
2023-05-14T16:09:11.998Z,97601.19
2023-05-14T16:11:42.163Z,97602.94
2023-05-14T16:14:12.279Z,97595.78
2023-05-14T16:16:45.132Z,97596.88
2023-05-14T16:19:15.476Z,97605.50
2023-05-14T16:21:45.683Z,97598.59
2023-05-14T16:24:15.854Z,97600.44
2023-05-14T16:26:46.149Z,97601.41
2023-05-14T16:29:16.341Z,97598.09
2023-05-14T16:31:49.175Z,97599.13
2023-05-14T16:34:19.272Z,97594.28
2023-05-14T16:36:49.388Z,97597.31
2023-05-14T16:39:19.566Z,97593.22
2023-05-14T16:41:52.659Z,97588.38
2023-05-14T16:44:22.865Z,97586.09
2023-05-14T16:46:55.644Z,97587.31
2023-05-14T16:49:25.838Z,97590.63
2023-05-14T16:51:55.996Z,97586.03
2023-05-14T16:54:26.124Z,97581.41
2023-05-14T16:56:56.406Z,97583.16
2023-05-14T16:59:26.549Z,97573.38
2023-05-14T17:01:59.448Z,97576.72
2023-05-14T17:04:32.405Z,97575.41
2023-05-14T17:07:03.716Z,97577.22
2023-05-14T17:09:34.113Z,97578.06
2023-05-14T17:12:04.349Z,97574.50
2023-05-14T17:14:34.579Z,97569.53
2023-05-14T17:17:07.808Z,97577.00
2023-05-14T17:19:37.951Z,97570.63
2023-05-14T17:22:08.407Z,97573.28
2023-05-14T17:24:39.299Z,97578.19
2023-05-14T17:27:09.760Z,97578.81
2023-05-14T17:29:39.879Z,97580.34
2023-05-14T17:32:12.985Z,97579.38
2023-05-14T17:34:43.432Z,97578.44
2023-05-14T17:37:15.884Z,97568.28
2023-05-14T17:39:46.008Z,97570.91
2023-05-14T17:42:16.427Z,97572.31
2023-05-14T17:44:46.721Z,97569.34
2023-05-14T17:47:20.736Z,97568.88
2023-05-14T17:49:51.091Z,97572.94
2023-05-14T17:52:21.278Z,97569.44
2023-05-14T17:54:51.496Z,97573.00
2023-05-14T17:57:22.987Z,97565.88
2023-05-14T17:59:53.078Z,97566.75
2023-05-14T18:02:26.176Z,97569.31
2023-05-14T18:04:56.304Z,97576.97
2023-05-14T18:07:26.483Z,97574.44
2023-05-14T18:09:56.647Z,97574.44
2023-05-14T18:12:27.737Z,97571.44
2023-05-14T18:14:57.956Z,97573.31
2023-05-14T18:17:30.832Z,97571.53
2023-05-14T18:20:00.923Z,97563.69
2023-05-14T18:22:31.045Z,97569.78
2023-05-14T18:25:01.132Z,97561.66
2023-05-14T18:27:31.697Z,97568.53
2023-05-14T18:30:01.791Z,97566.31
2023-05-14T18:32:34.550Z,97569.38
2023-05-14T18:35:06.479Z,97569.41
2023-05-14T18:37:38.411Z,97567.47
2023-05-14T18:40:10.012Z,97571.56
2023-05-14T18:42:40.182Z,97576.44
2023-05-14T18:45:11.206Z,97575.69
2023-05-14T18:47:44.281Z,97567.88
2023-05-14T18:50:14.721Z,97570.91
2023-05-14T18:52:44.831Z,97569.69
2023-05-14T18:55:15.870Z,97569.44
2023-05-14T18:57:46.278Z,97561.63
2023-05-14T19:00:17.914Z,97570.03
2023-05-14T19:02:50.776Z,97581.97
2023-05-14T19:05:21.195Z,97586.78
2023-05-14T19:07:51.343Z,97590.13
2023-05-14T19:10:21.685Z,97593.41
2023-05-14T19:12:51.785Z,97593.41
2023-05-14T19:15:21.931Z,97591.84
2023-05-14T19:17:54.868Z,97587.28
2023-05-14T19:20:26.438Z,97587.03
2023-05-14T19:22:56.535Z,97585.84
2023-05-14T19:25:27.115Z,97585.34
2023-05-14T19:27:57.745Z,97580.00
2023-05-14T19:30:27.918Z,97593.72
2023-05-14T19:33:00.802Z,97585.59
2023-05-14T19:35:31.019Z,97597.53
2023-05-14T19:38:04.050Z,97590.19
2023-05-14T19:40:34.285Z,97587.88
2023-05-14T19:43:04.502Z,97590.91
2023-05-14T19:45:39.140Z,97585.31
2023-05-14T19:48:12.679Z,97586.59
2023-05-14T19:50:42.887Z,97582.75
2023-05-14T19:53:13.137Z,97574.09
2023-05-14T19:55:43.447Z,97579.63
2023-05-14T19:58:21.088Z,97578.81
2023-05-14T20:00:53.567Z,97577.56
2023-05-14T20:03:26.849Z,97582.84
2023-05-14T20:05:58.248Z,97581.63
2023-05-14T20:08:29.262Z,97571.69
2023-05-14T20:10:59.434Z,97577.00
2023-05-14T20:13:31.931Z,97576.53
2023-05-14T20:16:05.280Z,97568.94
2023-05-14T20:18:41.535Z,97565.88
2023-05-14T20:21:13.931Z,97570.22
2023-05-14T20:23:49.530Z,97574.16
2023-05-14T20:26:19.801Z,97576.75
2023-05-14T20:28:50.074Z,97565.56
2023-05-14T20:31:21.747Z,97575.72
2023-05-14T20:33:54.626Z,97567.84
2023-05-14T20:36:24.909Z,97565.81
2023-05-14T20:38:56.125Z,97565.06
2023-05-14T20:41:26.515Z,97574.25
2023-05-14T20:43:56.734Z,97570.44
2023-05-14T20:46:26.996Z,97571.69
2023-05-14T20:49:00.337Z,97570.91
2023-05-14T20:51:30.671Z,97565.38
2023-05-14T20:54:01.043Z,97559.25
2023-05-14T20:56:31.338Z,97556.16
2023-05-14T20:59:01.611Z,97552.09
2023-05-14T21:01:31.832Z,97553.84
2023-05-14T21:04:04.949Z,97542.25
2023-05-14T21:06:35.186Z,97547.91
2023-05-14T21:09:05.304Z,97542.34
2023-05-14T21:11:35.500Z,97539.56
2023-05-14T21:14:05.758Z,97542.91
2023-05-14T21:16:36.330Z,97541.38
2023-05-14T21:19:09.379Z,97540.59
2023-05-14T21:21:39.692Z,97535.03
2023-05-14T21:24:10.360Z,97529.97
2023-05-14T21:26:41.606Z,97535.31
2023-05-14T21:29:11.721Z,97530.75
2023-05-14T21:31:41.867Z,97527.19
2023-05-14T21:34:14.618Z,97531.50
2023-05-14T21:36:44.814Z,97522.38
2023-05-14T21:39:15.005Z,97525.19
2023-05-14T21:41:45.277Z,97520.34
2023-05-14T21:44:15.484Z,97523.41
2023-05-14T21:46:45.973Z,97524.38
2023-05-14T21:49:18.752Z,97519.31
2023-05-14T21:51:53.267Z,97517.53
2023-05-14T21:54:23.564Z,97514.53
2023-05-14T21:56:53.847Z,97516.00
2023-05-14T21:59:24.082Z,97513.47
2023-05-14T22:04:29.865Z,97511.19
2023-05-14T22:07:00.061Z,97512.97
2023-05-14T22:09:30.643Z,97512.22
2023-05-14T22:12:01.300Z,97509.91
2023-05-14T22:14:31.582Z,97506.13
2023-05-14T22:17:01.765Z,97505.38
2023-05-14T22:19:34.759Z,97498.78
2023-05-14T22:22:04.970Z,97500.84
2023-05-14T22:24:35.116Z,97500.34
2023-05-14T22:27:05.330Z,97495.00
2023-05-14T22:29:38.095Z,97492.22
2023-05-14T22:32:10.517Z,97487.44
2023-05-14T22:34:43.386Z,97490.19
2023-05-14T22:37:13.623Z,97487.69
2023-05-14T22:39:43.790Z,97475.25
2023-05-14T22:42:14.037Z,97474.50
2023-05-14T22:44:44.260Z,97471.19
2023-05-14T22:47:14.450Z,97470.19
2023-05-14T22:49:47.185Z,97468.91
2023-05-14T22:52:19.053Z,97465.63
2023-05-14T22:54:51.096Z,97451.97
2023-05-14T22:57:21.340Z,97451.97
2023-05-14T22:59:51.628Z,97452.72
2023-05-14T23:02:21.891Z,97450.19
2023-05-14T23:04:54.631Z,97445.09
2023-05-14T23:07:25.044Z,97443.84
2023-05-14T23:09:55.224Z,97440.56
2023-05-14T23:12:25.503Z,97433.72
2023-05-14T23:14:55.719Z,97428.66
2023-05-14T23:17:26.007Z,97434.22
2023-05-14T23:19:58.752Z,97432.72
2023-05-14T23:22:28.878Z,97429.16
2023-05-14T23:24:59.029Z,97431.44
2023-05-14T23:27:29.309Z,97425.09
2023-05-14T23:29:59.510Z,97429.41
2023-05-14T23:32:30.391Z,97424.34
2023-05-14T23:35:03.410Z,97420.28
2023-05-14T23:37:33.822Z,97418.00
2023-05-14T23:40:04.651Z,97422.06
2023-05-14T23:42:34.759Z,97411.94
2023-05-14T23:45:05.471Z,97410.19
2023-05-14T23:47:35.603Z,97405.34
2023-05-14T23:50:09.047Z,97409.16
2023-05-14T23:52:39.179Z,97404.84
2023-05-14T23:55:10.178Z,97402.06
2023-05-14T23:57:41.148Z,97398.00
